Time;durP1;ratioP1;P1;durP2;ratioP2;P2;SDS_P1;SDS_P2;PMS_P1;PMS_P2;Temp;Humidity;BMP_temperature;BMP_pressure;BME280_temperature;BME280_humidity;BME280_pressure;Samples;Min_cycle;Max_cycle;Signal;HPM_P1;HPM_P2
2023/06/18 00:00:39;;;;;;;3.53;2.10;;;19.60;99.90;;;;;;5006797;28;20371;-79
2023/06/18 00:03:05;;;;;;;3.42;2.22;;;19.60;99.90;;;;;;5010248;28;20140;-79
2023/06/18 00:05:30;;;;;;;3.17;1.92;;;19.60;99.90;;;;;;5009345;28;20038;-78
2023/06/18 00:07:56;;;;;;;4.90;2.70;;;19.60;99.90;;;;;;4991681;28;20502;-80
2023/06/18 00:10:22;;;;;;;2.80;1.70;;;19.60;99.90;;;;;;4990125;28;20029;-77
2023/06/18 00:12:47;;;;;;;6.63;2.88;;;19.70;99.90;;;;;;5009155;28;20022;-79
2023/06/18 00:15:13;;;;;;;4.20;2.00;;;19.70;99.90;;;;;;5009764;28;20544;-79
2023/06/18 00:17:39;;;;;;;3.05;2.10;;;19.70;99.90;;;;;;4993009;28;20032;-79
2023/06/18 00:20:05;;;;;;;2.90;1.92;;;19.80;99.90;;;;;;4992167;28;20083;-80
2023/06/18 00:22:31;;;;;;;3.40;2.35;;;19.70;99.90;;;;;;5010413;28;20022;-78
2023/06/18 00:24:57;;;;;;;3.22;2.00;;;19.80;99.90;;;;;;5042078;28;20721;-79
2023/06/18 00:27:23;;;;;;;3.38;2.17;;;19.80;99.90;;;;;;5008905;28;20654;-78
2023/06/18 00:29:48;;;;;;;4.32;2.53;;;19.80;99.90;;;;;;5042446;28;20029;-80
2023/06/18 00:32:14;;;;;;;3.67;2.35;;;19.80;99.90;;;;;;4991004;28;20125;-79
2023/06/18 00:34:41;;;;;;;3.20;1.60;;;19.80;99.90;;;;;;4989565;28;20030;-80
2023/06/18 00:37:09;;;;;;;3.60;1.95;;;19.90;99.90;;;;;;4992873;28;20021;-78
2023/06/18 00:39:38;;;;;;;3.75;2.63;;;19.90;99.90;;;;;;4992545;28;20045;-81
2023/06/18 00:42:10;;;;;;;3.58;2.33;;;19.90;99.90;;;;;;4990210;28;20170;-80
2023/06/18 00:44:40;;;;;;;5.00;2.58;;;19.80;99.90;;;;;;5009309;28;20040;-78
2023/06/18 00:47:12;;;;;;;5.18;2.45;;;19.80;99.90;;;;;;5020814;28;20030;-81
2023/06/18 00:49:40;;;;;;;4.68;2.60;;;19.70;99.90;;;;;;4992955;28;20030;-77
2023/06/18 00:52:08;;;;;;;2.72;1.95;;;19.60;99.90;;;;;;5038434;28;20564;-81
2023/06/18 00:54:35;;;;;;;5.22;2.78;;;19.60;99.90;;;;;;5004988;28;20041;-81
2023/06/18 00:57:03;;;;;;;3.15;2.70;;;19.50;99.90;;;;;;4991351;28;20121;-77
2023/06/18 00:59:29;;;;;;;4.45;2.75;;;19.50;99.90;;;;;;5024048;28;20049;-82
2023/06/18 01:01:56;;;;;;;3.88;2.10;;;19.50;99.90;;;;;;5002751;28;20442;-82
2023/06/18 01:04:27;;;;;;;3.47;2.35;;;19.50;99.90;;;;;;5008635;28;20030;-81
2023/06/18 01:06:55;;;;;;;3.90;2.28;;;19.50;99.90;;;;;;4989759;28;20044;-82
2023/06/18 01:09:22;;;;;;;4.00;2.38;;;19.50;99.90;;;;;;5025741;28;20053;-81
2023/06/18 01:11:51;;;;;;;4.15;2.70;;;19.50;99.90;;;;;;5038324;28;20058;-82
2023/06/18 01:14:31;;;;;;;3.10;1.75;;;19.40;99.90;;;;;;4990687;28;20069;-81
2023/06/18 01:17:00;;;;;;;3.42;2.15;;;19.40;99.90;;;;;;4992032;28;20159;-81
2023/06/18 01:20:00;;;;;;;5.80;2.80;;;19.20;99.90;;;;;;5020813;28;20034;-81
2023/06/18 01:22:44;;;;;;;3.28;2.13;;;19.20;99.90;;;;;;5041395;28;20045;-81
2023/06/18 01:25:10;;;;;;;3.28;2.47;;;19.10;99.90;;;;;;4989840;28;20042;-81
2023/06/18 01:27:41;;;;;;;4.68;2.45;;;19.10;99.90;;;;;;5004668;28;20486;-82
2023/06/18 01:30:11;;;;;;;4.57;2.50;;;19.00;99.90;;;;;;5036617;28;20391;-81
2023/06/18 01:32:38;;;;;;;3.40;2.72;;;18.90;99.90;;;;;;5007717;28;20391;-81
2023/06/18 01:35:06;;;;;;;4.57;2.10;;;18.90;99.90;;;;;;5003964;28;20038;-82
2023/06/18 01:38:07;;;;;;;4.78;3.13;;;19.00;99.90;;;;;;4989398;28;20518;-82
2023/06/18 01:40:33;;;;;;;3.30;2.35;;;18.90;99.90;;;;;;5020383;28;20034;-82
2023/06/18 01:43:34;;;;;;;5.70;3.22;;;18.80;99.90;;;;;;5025232;28;20418;-81
2023/06/18 01:46:06;;;;;;;4.55;2.40;;;18.80;99.90;;;;;;4973019;28;20053;-81
2023/06/18 01:48:41;;;;;;;4.25;2.83;;;18.70;99.90;;;;;;4987083;28;20133;-81
2023/06/18 01:51:10;;;;;;;4.63;2.70;;;18.70;99.90;;;;;;4987876;28;20129;-81
2023/06/18 01:53:37;;;;;;;4.78;2.88;;;18.70;99.90;;;;;;4970874;28;20637;-81
2023/06/18 01:56:04;;;;;;;3.92;3.03;;;18.70;99.90;;;;;;4987812;28;20042;-81
2023/06/18 01:58:32;;;;;;;4.97;2.88;;;18.50;99.90;;;;;;4988326;28;20022;-81
2023/06/18 02:00:58;;;;;;;4.45;3.03;;;18.40;99.90;;;;;;4972654;28;20027;-80
2023/06/18 02:03:24;;;;;;;4.93;3.53;;;18.40;99.90;;;;;;4971087;28;20507;-82
2023/06/18 02:05:50;;;;;;;4.57;3.33;;;18.30;99.90;;;;;;4970317;28;20569;-81
2023/06/18 02:08:17;;;;;;;5.30;3.33;;;18.20;99.90;;;;;;4970428;28;20034;-81
2023/06/18 02:10:45;;;;;;;3.92;2.63;;;18.20;99.90;;;;;;4972907;28;20387;-81
2023/06/18 02:13:10;;;;;;;4.55;2.88;;;18.20;99.90;;;;;;4967200;28;20025;-81
2023/06/18 02:15:37;;;;;;;4.68;3.28;;;18.20;99.90;;;;;;4988432;28;20124;-81
2023/06/18 02:18:03;;;;;;;3.55;3.20;;;18.10;99.90;;;;;;4972088;28;20030;-78
2023/06/18 02:20:29;;;;;;;4.70;3.38;;;18.00;99.90;;;;;;4953172;28;20429;-79
2023/06/18 02:22:55;;;;;;;4.25;3.40;;;17.90;99.90;;;;;;4991388;28;20054;-78
2023/06/18 02:25:28;;;;;;;6.07;3.92;;;17.80;99.90;;;;;;5006158;28;20482;-79
2023/06/18 02:28:04;;;;;;;4.13;3.28;;;17.70;99.90;;;;;;5035813;28;20034;-79
2023/06/18 02:30:30;;;;;;;4.22;3.03;;;17.70;99.90;;;;;;5001675;28;20129;-81
2023/06/18 02:33:06;;;;;;;4.78;3.03;;;17.80;99.90;;;;;;5021095;28;20113;-78
2023/06/18 02:35:32;;;;;;;5.00;3.53;;;17.80;99.90;;;;;;5006172;28;20037;-78
2023/06/18 02:37:58;;;;;;;4.63;3.60;;;17.70;99.90;;;;;;4988046;28;20046;-79
2023/06/18 02:40:25;;;;;;;5.72;3.38;;;17.60;99.90;;;;;;5007197;28;20131;-79
2023/06/18 02:42:52;;;;;;;3.92;3.42;;;17.60;99.90;;;;;;5005067;28;20495;-81
2023/06/18 02:45:22;;;;;;;6.20;3.90;;;17.50;99.90;;;;;;5008063;28;20454;-82
2023/06/18 02:47:49;;;;;;;4.47;3.63;;;17.50;99.90;;;;;;5007698;28;20026;-81
2023/06/18 02:50:19;;;;;;;5.80;3.03;;;17.50;99.90;;;;;;4990709;28;20043;-81
2023/06/18 02:52:46;;;;;;;4.43;3.47;;;17.40;99.90;;;;;;5003111;28;20037;-81
2023/06/18 02:55:12;;;;;;;4.07;3.42;;;17.30;99.90;;;;;;5024019;28;20045;-81
2023/06/18 02:57:39;;;;;;;5.47;3.38;;;17.30;99.90;;;;;;5001865;28;20112;-81
2023/06/18 03:00:11;;;;;;;5.18;3.53;;;17.10;99.90;;;;;;5020624;28;20027;-80
2023/06/18 03:02:39;;;;;;;5.28;3.40;;;17.00;99.90;;;;;;5037997;28;20022;-81
2023/06/18 03:05:08;;;;;;;4.95;3.70;;;17.00;99.90;;;;;;5004939;28;20034;-80
2023/06/18 03:07:34;;;;;;;6.22;4.32;;;16.90;99.90;;;;;;5013419;28;20041;-81
2023/06/18 03:10:00;;;;;;;5.50;4.35;;;16.80;99.90;;;;;;5009644;28;20117;-81
2023/06/18 03:12:28;;;;;;;6.00;4.40;;;16.80;99.90;;;;;;5040386;28;20026;-81
2023/06/18 03:14:55;;;;;;;6.82;4.40;;;16.70;99.90;;;;;;4992824;28;20037;-79
2023/06/18 03:17:22;;;;;;;5.00;3.70;;;16.80;99.90;;;;;;5026632;28;20117;-81
2023/06/18 03:19:49;;;;;;;8.63;5.07;;;16.80;99.90;;;;;;4993567;28;20113;-81
2023/06/18 03:22:14;;;;;;;3.90;3.50;;;16.70;99.90;;;;;;4989958;28;20116;-80
2023/06/18 03:24:41;;;;;;;4.57;4.18;;;16.70;99.90;;;;;;4991513;28;20026;-80
2023/06/18 03:27:07;;;;;;;4.72;4.00;;;16.70;99.90;;;;;;4996252;28;20110;-80
2023/06/18 03:29:35;;;;;;;4.43;3.90;;;16.70;99.90;;;;;;4991300;28;20113;-80
2023/06/18 03:32:02;;;;;;;4.25;3.83;;;16.70;99.90;;;;;;5012128;28;20030;-82
2023/06/18 03:34:31;;;;;;;5.53;3.72;;;16.80;99.90;;;;;;5009038;28;20452;-80
2023/06/18 03:37:00;;;;;;;4.93;4.07;;;16.80;99.90;;;;;;5043048;28;20022;-79
2023/06/18 03:39:26;;;;;;;4.55;3.70;;;16.90;99.90;;;;;;4989943;28;20061;-78
2023/06/18 03:41:52;;;;;;;6.20;4.40;;;16.80;99.90;;;;;;5005970;28;20068;-79
2023/06/18 03:44:18;;;;;;;5.40;4.57;;;16.90;99.90;;;;;;5008582;28;20030;-77
2023/06/18 03:46:44;;;;;;;4.85;4.32;;;16.90;99.90;;;;;;5009640;28;20069;-78
2023/06/18 03:49:10;;;;;;;5.82;4.15;;;16.90;99.90;;;;;;5010460;28;20026;-78
2023/06/18 03:51:36;;;;;;;4.65;3.90;;;16.90;99.90;;;;;;5005700;28;20037;-78
2023/06/18 03:54:02;;;;;;;4.80;3.88;;;16.90;99.90;;;;;;5008862;28;20030;-77
2023/06/18 03:56:28;;;;;;;6.65;4.70;;;16.90;99.90;;;;;;5008545;28;20029;-78
2023/06/18 03:58:55;;;;;;;5.68;4.63;;;16.90;99.90;;;;;;5008827;28;20018;-79
2023/06/18 04:01:20;;;;;;;6.55;4.63;;;16.90;99.90;;;;;;5021229;28;20594;-78
2023/06/18 04:03:46;;;;;;;5.32;4.47;;;17.00;99.90;;;;;;4992285;28;20034;-78
2023/06/18 04:06:12;;;;;;;5.60;4.32;;;17.00;99.90;;;;;;5007309;28;20064;-78
2023/06/18 04:08:37;;;;;;;5.65;4.72;;;17.10;99.90;;;;;;5007027;28;20026;-77
2023/06/18 04:11:03;;;;;;;6.32;5.13;;;17.10;99.90;;;;;;4990294;28;20073;-79
2023/06/18 04:13:29;;;;;;;7.15;5.30;;;17.10;99.90;;;;;;4992428;28;22265;-79
2023/06/18 04:15:57;;;;;;;6.90;4.63;;;17.10;99.90;;;;;;4992112;28;20097;-77
2023/06/18 04:18:25;;;;;;;6.05;4.80;;;17.20;99.90;;;;;;5005688;28;20022;-78
2023/06/18 04:20:51;;;;;;;5.75;5.07;;;17.20;99.90;;;;;;5038065;28;20026;-81
2023/06/18 04:23:18;;;;;;;6.35;5.30;;;17.30;99.90;;;;;;4990184;28;20022;-82
2023/06/18 04:25:44;;;;;;;6.43;5.32;;;17.40;99.90;;;;;;5008257;28;20116;-81
2023/06/18 04:28:09;;;;;;;6.35;5.53;;;17.50;99.90;;;;;;5008573;28;20014;-81
2023/06/18 04:30:35;;;;;;;6.22;5.43;;;17.50;99.90;;;;;;5009901;28;20034;-82
2023/06/18 04:33:03;;;;;;;5.88;5.10;;;17.60;99.90;;;;;;4992134;28;20026;-81
2023/06/18 04:35:29;;;;;;;5.28;4.78;;;17.70;99.90;;;;;;5038401;28;20023;-82
2023/06/18 04:37:54;;;;;;;8.77;5.53;;;17.90;99.90;;;;;;4994649;28;20022;-82
2023/06/18 04:40:21;;;;;;;9.30;5.20;;;18.00;99.90;;;;;;5009262;28;20478;-82
2023/06/18 04:42:47;;;;;;;6.93;6.05;;;18.10;99.90;;;;;;5016680;28;20109;-81
2023/06/18 04:45:20;;;;;;;6.80;4.70;;;18.20;99.90;;;;;;4989632;28;20042;-82
2023/06/18 04:47:46;;;;;;;9.43;5.93;;;18.40;99.90;;;;;;4993646;28;20828;-81
2023/06/18 04:50:12;;;;;;;6.55;5.45;;;18.50;99.90;;;;;;5041545;28;20117;-81
2023/06/18 04:52:43;;;;;;;5.10;4.40;;;18.60;99.90;;;;;;5001012;28;20030;-82
2023/06/18 04:55:08;;;;;;;6.05;5.45;;;18.80;99.90;;;;;;4990242;28;20495;-81
2023/06/18 04:57:35;;;;;;;8.77;5.30;;;18.90;99.90;;;;;;5037835;28;20030;-81
2023/06/18 05:00:04;;;;;;;6.65;5.45;;;19.00;99.90;;;;;;5002133;28;20034;-79
2023/06/18 05:02:31;;;;;;;5.63;5.10;;;19.10;99.90;;;;;;4992869;28;20381;-79
2023/06/18 05:04:57;;;;;;;7.30;5.28;;;19.10;99.90;;;;;;4990657;28;20018;-79
2023/06/18 05:07:24;;;;;;;5.55;4.82;;;19.20;99.90;;;;;;4990417;28;20065;-80
2023/06/18 05:09:50;;;;;;;6.95;5.05;;;19.30;99.90;;;;;;5023935;28;20022;-80
2023/06/18 05:12:16;;;;;;;6.60;5.05;;;19.30;99.90;;;;;;5005667;28;20030;-79
2023/06/18 05:14:42;;;;;;;7.20;5.82;;;19.30;99.90;;;;;;5004149;28;20121;-79
2023/06/18 05:17:08;;;;;;;8.80;5.90;;;19.40;99.90;;;;;;4983576;28;20125;-78
2023/06/18 05:19:34;;;;;;;6.60;5.20;;;19.30;99.90;;;;;;4987977;28;20034;-79
2023/06/18 05:22:00;;;;;;;6.55;5.47;;;19.40;99.90;;;;;;5005775;28;20454;-78
2023/06/18 05:24:27;;;;;;;6.80;6.10;;;19.50;99.90;;;;;;5004056;28;20451;-81
2023/06/18 05:26:53;;;;;;;7.20;5.60;;;19.50;99.90;;;;;;5021942;28;20025;-79
2023/06/18 05:29:18;;;;;;;7.40;5.30;;;19.50;99.90;;;;;;5021363;28;20096;-79
2023/06/18 05:31:47;;;;;;;7.55;5.10;;;19.60;99.90;;;;;;5007129;28;20439;-79
2023/06/18 05:34:19;;;;;;;7.20;5.63;;;19.60;99.90;;;;;;5004963;28;20128;-79
2023/06/18 05:36:46;;;;;;;6.18;4.90;;;19.60;99.90;;;;;;5003803;28;20034;-78
2023/06/18 05:39:11;;;;;;;6.72;4.95;;;19.60;99.90;;;;;;5005587;28;20056;-79
2023/06/18 05:41:37;;;;;;;5.57;4.97;;;19.50;99.90;;;;;;5007198;28;20038;-80
2023/06/18 05:44:03;;;;;;;6.05;5.07;;;19.50;99.90;;;;;;5007674;28;20187;-79
2023/06/18 05:46:29;;;;;;;5.55;5.00;;;19.60;99.90;;;;;;5005582;28;20026;-79
2023/06/18 05:48:55;;;;;;;5.90;5.15;;;19.70;99.90;;;;;;4989492;28;20026;-79
2023/06/18 05:51:22;;;;;;;6.82;6.05;;;19.90;99.90;;;;;;5005249;28;20053;-81
2023/06/18 05:53:47;;;;;;;6.22;5.47;;;20.10;99.90;;;;;;5003003;28;20030;-80
2023/06/18 05:56:14;;;;;;;9.15;5.95;;;20.40;99.90;;;;;;5005285;28;20049;-80
2023/06/18 05:58:41;;;;;;;5.97;5.38;;;20.60;99.90;;;;;;5005314;28;20026;-82
2023/06/18 06:01:07;;;;;;;6.55;5.45;;;20.80;99.90;;;;;;5020164;28;20026;-79
2023/06/18 06:03:35;;;;;;;7.25;6.50;;;20.90;99.90;;;;;;4984450;28;20394;-82
2023/06/18 06:06:02;;;;;;;6.63;5.15;;;20.90;99.90;;;;;;5006760;28;20026;-80
2023/06/18 06:08:30;;;;;;;6.72;6.03;;;21.00;99.90;;;;;;5022027;28;20026;-82
2023/06/18 06:10:57;;;;;;;6.60;5.28;;;21.00;99.90;;;;;;5018653;28;20037;-81
2023/06/18 06:13:23;;;;;;;6.53;5.93;;;21.30;99.90;;;;;;4990124;28;20529;-81
2023/06/18 06:15:54;;;;;;;6.75;5.70;;;21.40;99.90;;;;;;5035770;28;20044;-81
2023/06/18 06:18:20;;;;;;;7.22;5.93;;;21.50;99.90;;;;;;4990005;28;20099;-82
2023/06/18 06:20:46;;;;;;;6.28;5.60;;;21.60;99.90;;;;;;4988065;28;20105;-79
2023/06/18 06:23:12;;;;;;;6.55;5.95;;;21.70;99.90;;;;;;4988301;28;20129;-78
2023/06/18 06:25:38;;;;;;;8.27;6.72;;;22.10;99.90;;;;;;5005496;28;20431;-79
2023/06/18 06:28:04;;;;;;;6.47;5.57;;;22.10;99.90;;;;;;5032720;28;20030;-80
2023/06/18 06:30:31;;;;;;;7.25;5.88;;;22.60;99.90;;;;;;4981945;28;20113;-79
2023/06/18 06:33:00;;;;;;;5.75;4.80;;;22.70;99.90;;;;;;4989504;28;20026;-79
2023/06/18 06:35:28;;;;;;;6.95;5.68;;;22.90;99.90;;;;;;5020441;28;20050;-81
2023/06/18 06:37:55;;;;;;;6.18;5.57;;;23.10;99.90;;;;;;5022913;28;20037;-79
2023/06/18 06:40:21;;;;;;;6.18;5.05;;;23.30;99.90;;;;;;5001018;28;20037;-79
2023/06/18 06:42:47;;;;;;;5.70;5.10;;;23.40;99.90;;;;;;5006068;28;20025;-79
2023/06/18 06:45:27;;;;;;;5.95;5.38;;;23.60;99.90;;;;;;4990191;28;20037;-78
2023/06/18 06:48:19;;;;;;;5.57;5.00;;;24.00;99.90;;;;;;5013638;28;20043;-79
2023/06/18 06:50:57;;;;;;;5.63;5.07;;;24.20;99.90;;;;;;5035232;28;20125;-79
2023/06/18 06:53:31;;;;;;;6.32;4.95;;;24.40;99.90;;;;;;4994276;28;20056;-79
2023/06/18 06:55:57;;;;;;;5.70;5.20;;;24.60;99.90;;;;;;4999623;28;20039;-80
2023/06/18 06:58:23;;;;;;;6.57;4.63;;;24.70;99.90;;;;;;4999862;28;20387;-78
2023/06/18 07:00:48;;;;;;;5.18;4.38;;;24.90;99.90;;;;;;4985546;28;20018;-80
2023/06/18 07:03:14;;;;;;;4.35;3.95;;;24.80;99.90;;;;;;4978498;28;20550;-79
2023/06/18 07:05:40;;;;;;;5.57;4.50;;;25.10;99.90;;;;;;5012985;28;20034;-78
2023/06/18 07:08:06;;;;;;;4.07;3.60;;;24.90;99.90;;;;;;5001653;28;20072;-79
2023/06/18 07:10:32;;;;;;;5.47;4.03;;;24.90;99.90;;;;;;5030640;28;20077;-80
2023/06/18 07:12:58;;;;;;;4.38;3.97;;;24.90;99.90;;;;;;5013340;28;20033;-78
2023/06/18 07:15:24;;;;;;;4.78;3.83;;;25.00;99.90;;;;;;4998871;28;20037;-79
2023/06/18 07:17:49;;;;;;;4.97;3.88;;;25.10;99.90;;;;;;4999593;28;20030;-79
2023/06/18 07:20:16;;;;;;;6.85;3.33;;;25.20;99.90;;;;;;4981463;28;20026;-80
2023/06/18 07:22:41;;;;;;;4.38;3.72;;;25.40;99.90;;;;;;4998821;28;20097;-80
2023/06/18 07:25:07;;;;;;;6.25;3.38;;;25.50;99.90;;;;;;5028404;28;20077;-81
2023/06/18 07:27:34;;;;;;;4.05;3.10;;;25.80;99.90;;;;;;5015979;28;20131;-80
2023/06/18 07:30:00;;;;;;;4.15;3.20;;;25.90;99.90;;;;;;4995743;28;20030;-79
2023/06/18 07:32:26;;;;;;;4.53;3.20;;;26.10;99.90;;;;;;4997992;28;20406;-81
2023/06/18 07:34:52;;;;;;;3.28;2.88;;;26.10;99.90;;;;;;4999883;28;20022;-81
2023/06/18 07:37:17;;;;;;;4.15;2.63;;;26.20;99.30;;;;;;5028408;28;20351;-81
2023/06/18 07:39:43;;;;;;;4.05;3.28;;;26.30;99.80;;;;;;5000936;28;20462;-81
2023/06/18 07:42:09;;;;;;;3.65;3.30;;;26.00;99.90;;;;;;4980944;28;20030;-82
2023/06/18 07:44:34;;;;;;;6.20;3.22;;;25.90;99.90;;;;;;4999515;28;20026;-83
2023/06/18 07:47:01;;;;;;;3.95;3.15;;;25.90;99.90;;;;;;4981956;28;20029;-81
2023/06/18 07:49:27;;;;;;;3.67;2.97;;;26.00;99.90;;;;;;5015344;28;20061;-82
2023/06/18 07:51:54;;;;;;;3.30;2.75;;;26.10;99.90;;;;;;4983733;28;20116;-81
2023/06/18 07:54:19;;;;;;;3.60;2.85;;;26.40;99.80;;;;;;4988453;28;20030;-81
2023/06/18 07:56:45;;;;;;;4.38;2.97;;;26.80;99.80;;;;;;5006059;28;20049;-82
2023/06/18 07:59:11;;;;;;;5.18;3.22;;;27.00;99.90;;;;;;4982083;28;20033;-80
2023/06/18 08:01:36;;;;;;;3.88;2.85;;;27.00;99.20;;;;;;4988052;28;20061;-81
2023/06/18 08:04:02;;;;;;;3.30;3.00;;;27.10;99.90;;;;;;5003821;28;20046;-80
2023/06/18 08:06:28;;;;;;;3.15;2.85;;;26.90;99.80;;;;;;4998381;28;20029;-81
2023/06/18 08:08:53;;;;;;;2.97;2.40;;;27.10;99.90;;;;;;4982498;28;20058;-80
2023/06/18 08:11:19;;;;;;;3.55;3.25;;;27.20;99.90;;;;;;5002293;28;20104;-79
2023/06/18 08:13:45;;;;;;;3.83;2.78;;;27.20;98.80;;;;;;5015344;28;20030;-80
2023/06/18 08:16:11;;;;;;;4.93;3.25;;;27.30;99.10;;;;;;5001637;28;20487;-80
2023/06/18 08:18:36;;;;;;;3.42;2.50;;;27.10;98.50;;;;;;5004483;28;20026;-80
2023/06/18 08:21:02;;;;;;;2.65;2.17;;;27.00;99.20;;;;;;5002965;28;20030;-79
2023/06/18 08:23:28;;;;;;;4.03;2.55;;;26.70;98.80;;;;;;5014349;28;20054;-80
2023/06/18 08:25:54;;;;;;;4.10;2.92;;;26.70;99.10;;;;;;5016017;28;20625;-79
2023/06/18 08:28:20;;;;;;;5.95;3.15;;;26.30;99.70;;;;;;4981629;28;20384;-81
2023/06/18 08:30:46;;;;;;;4.38;2.95;;;26.20;99.60;;;;;;5013932;28;20046;-79
2023/06/18 08:33:11;;;;;;;5.55;3.08;;;26.00;99.70;;;;;;4999601;28;20022;-82
2023/06/18 08:35:37;;;;;;;4.35;3.75;;;25.90;99.90;;;;;;5017176;28;20038;-81
2023/06/18 08:38:04;;;;;;;3.13;2.58;;;25.60;99.70;;;;;;5015632;28;20540;-82
2023/06/18 08:40:48;;;;;;;7.25;6.53;;;25.60;99.90;;;;;;5002787;28;20030;-81
2023/06/18 08:43:14;;;;;;;5.03;4.53;;;25.00;99.90;;;;;;5001596;28;20042;-82
2023/06/18 08:45:40;;;;;;;5.38;4.45;;;25.40;99.90;;;;;;4998580;28;20037;-83
2023/06/18 08:48:08;;;;;;;6.15;4.38;;;25.80;99.90;;;;;;4999601;28;20568;-82
2023/06/18 08:50:37;;;;;;;4.47;3.83;;;25.90;99.90;;;;;;5032965;28;20066;-82
2023/06/18 08:53:09;;;;;;;3.55;3.05;;;26.10;99.90;;;;;;5003813;28;20029;-82
2023/06/18 08:55:35;;;;;;;3.53;3.22;;;26.40;99.90;;;;;;4998601;28;20042;-81
2023/06/18 08:58:13;;;;;;;3.80;3.25;;;26.60;99.90;;;;;;5004226;28;20041;-82
2023/06/18 09:00:40;;;;;;;4.60;3.78;;;26.70;99.60;;;;;;5002432;28;20022;-81
2023/06/18 09:03:05;;;;;;;5.13;3.78;;;26.70;99.90;;;;;;4981181;28;20030;-82
2023/06/18 09:05:32;;;;;;;5.47;3.92;;;27.20;99.90;;;;;;5001195;28;20493;-82
2023/06/18 09:07:58;;;;;;;3.55;3.00;;;27.30;99.30;;;;;;4982048;28;20104;-82
2023/06/18 09:10:25;;;;;;;4.18;2.78;;;27.60;99.90;;;;;;5015259;28;20572;-82
2023/06/18 09:12:50;;;;;;;3.47;3.17;;;27.70;99.60;;;;;;4997162;28;20113;-82
2023/06/18 09:15:16;;;;;;;5.05;3.30;;;27.90;99.10;;;;;;5003904;28;20166;-83
2023/06/18 09:17:50;;;;;;;4.47;3.30;;;28.00;98.80;;;;;;4998491;28;20033;-82
2023/06/18 09:20:19;;;;;;;4.28;3.10;;;28.00;98.30;;;;;;5000746;28;20033;-82
2023/06/18 09:22:46;;;;;;;4.28;3.10;;;28.00;97.50;;;;;;4998557;28;20037;-82
2023/06/18 09:25:21;;;;;;;3.30;2.22;;;28.70;96.70;;;;;;4999607;28;20030;-83
2023/06/18 09:27:46;;;;;;;3.35;2.70;;;29.00;96.60;;;;;;4999411;28;20369;-81
2023/06/18 09:30:24;;;;;;;3.13;2.17;;;29.10;95.20;;;;;;5006705;28;20265;-83
2023/06/18 09:32:50;;;;;;;2.92;2.10;;;29.60;95.00;;;;;;4997016;28;20485;-82
2023/06/18 09:35:17;;;;;;;2.65;1.63;;;29.30;94.40;;;;;;4998900;28;20033;-83
2023/06/18 09:37:44;;;;;;;1.95;1.45;;;29.70;94.40;;;;;;5003545;28;20072;-84
2023/06/18 09:40:20;;;;;;;2.35;1.40;;;29.40;94.50;;;;;;5014336;28;20470;-83
2023/06/18 09:42:50;;;;;;;2.95;1.33;;;29.80;93.20;;;;;;4998755;28;20034;-83
2023/06/18 09:45:18;;;;;;;3.50;1.80;;;29.90;93.60;;;;;;5015403;28;20021;-82
2023/06/18 09:47:46;;;;;;;2.33;1.20;;;29.90;93.90;;;;;;4998948;28;20033;-83
2023/06/18 09:50:12;;;;;;;1.63;1.05;;;30.10;91.90;;;;;;4997712;28;20072;-84
2023/06/18 09:52:46;;;;;;;4.22;1.70;;;30.20;92.80;;;;;;5002067;28;20409;-82
2023/06/18 09:55:30;;;;;;;2.30;1.58;;;29.40;91.20;;;;;;4995861;28;20042;-83
2023/06/18 09:57:57;;;;;;;2.40;1.55;;;29.20;92.40;;;;;;4998190;28;20080;-83
2023/06/18 10:00:24;;;;;;;2.53;1.13;;;29.90;91.40;;;;;;5014465;28;20037;-82
2023/06/18 10:02:49;;;;;;;2.13;1.02;;;30.30;91.00;;;;;;4997560;28;20030;-83
2023/06/18 10:05:15;;;;;;;2.40;0.88;;;30.20;91.90;;;;;;4998847;28;20133;-82
2023/06/18 10:07:41;;;;;;;2.13;1.00;;;30.10;91.10;;;;;;4998900;28;20018;-83
2023/06/18 10:10:14;;;;;;;2.88;0.90;;;29.80;90.20;;;;;;4995301;28;20077;-83
2023/06/18 10:12:43;;;;;;;1.70;1.00;;;29.50;91.30;;;;;;5012015;28;20033;-82
2023/06/18 10:15:11;;;;;;;4.60;1.00;;;29.30;90.60;;;;;;5018170;28;20034;-83
2023/06/18 10:17:43;;;;;;;1.63;0.70;;;29.60;91.50;;;;;;4979965;28;20096;-83
2023/06/18 10:20:12;;;;;;;1.83;0.90;;;29.70;90.50;;;;;;4997517;28;20297;-82
2023/06/18 10:22:46;;;;;;;2.40;1.00;;;29.30;91.40;;;;;;4996657;28;20041;-82
2023/06/18 10:25:12;;;;;;;1.77;0.73;;;29.50;91.40;;;;;;5012474;28;20038;-82
2023/06/18 10:27:38;;;;;;;2.58;0.73;;;29.80;90.50;;;;;;5011329;28;20124;-81
2023/06/18 10:30:05;;;;;;;1.65;0.80;;;30.60;90.10;;;;;;4979516;28;20053;-82
2023/06/18 10:32:33;;;;;;;2.00;0.80;;;30.50;88.00;;;;;;5013125;28;20034;-82
2023/06/18 10:35:01;;;;;;;1.75;0.80;;;30.30;88.70;;;;;;5003027;28;20128;-81
2023/06/18 10:37:30;;;;;;;2.30;0.90;;;29.50;90.00;;;;;;5027064;28;20032;-82
2023/06/18 10:39:56;;;;;;;;;;;28.60;88.60;;;;;;5003110;28;20153;-82
2023/06/18 10:42:23;;;;;;;1.83;0.77;;;28.90;90.80;;;;;;5002532;28;20004;-82
2023/06/18 10:44:54;;;;;;;1.88;0.80;;;29.20;90.50;;;;;;5000029;28;20032;-81
2023/06/18 10:47:22;;;;;;;1.58;0.70;;;29.10;90.40;;;;;;5001369;28;20085;-83
2023/06/18 10:50:16;;;;;;;2.25;0.80;;;28.70;91.30;;;;;;4977325;28;20133;-83
2023/06/18 10:52:43;;;;;;;1.30;0.70;;;28.70;91.10;;;;;;4993389;28;20483;-82
2023/06/18 10:55:18;;;;;;;2.92;0.85;;;28.60;91.60;;;;;;5013452;28;20491;-82
2023/06/18 10:57:46;;;;;;;2.90;1.00;;;28.60;91.60;;;;;;4998153;28;20366;-82
2023/06/18 11:00:31;;;;;;;2.28;0.65;;;28.40;91.60;;;;;;5028758;28;20088;-82
2023/06/18 11:03:14;;;;;;;1.73;0.95;;;28.70;91.10;;;;;;4999448;28;20122;-82
2023/06/18 11:05:51;;;;;;;1.67;0.80;;;28.50;90.80;;;;;;4979572;28;20042;-83
2023/06/18 11:08:26;;;;;;;2.08;0.90;;;28.70;90.80;;;;;;4994702;28;20502;-83
2023/06/18 11:11:14;;;;;;;1.98;0.80;;;28.90;90.40;;;;;;5015176;28;20048;-84
2023/06/18 11:13:41;;;;;;;1.85;0.85;;;28.60;90.10;;;;;;4996782;28;20034;-83
2023/06/18 11:16:07;;;;;;;1.98;0.70;;;28.60;90.30;;;;;;5013987;28;20036;-83
2023/06/18 11:18:38;;;;;;;1.30;0.60;;;28.60;90.20;;;;;;5002467;28;20041;-82
2023/06/18 11:21:04;;;;;;;2.03;0.80;;;28.80;90.90;;;;;;5002494;28;20087;-82
2023/06/18 11:23:31;;;;;;;1.60;0.70;;;28.50;91.40;;;;;;5002837;28;20026;-83
2023/06/18 11:25:58;;;;;;;1.20;0.70;;;28.40;92.00;;;;;;5016437;28;20173;-82
2023/06/18 11:28:24;;;;;;;1.83;0.80;;;28.50;90.90;;;;;;4999647;28;20030;-83
2023/06/18 11:30:58;;;;;;;2.92;0.90;;;28.50;91.90;;;;;;5000643;28;20056;-82
2023/06/18 11:33:26;;;;;;;2.42;0.93;;;28.30;91.40;;;;;;5003779;28;20034;-82
2023/06/18 11:35:55;;;;;;;2.28;0.90;;;28.10;92.40;;;;;;5001637;28;20162;-83
2023/06/18 11:38:22;;;;;;;1.35;0.70;;;27.80;92.30;;;;;;4981328;28;20113;-82
2023/06/18 11:40:55;;;;;;;1.60;0.90;;;27.50;92.30;;;;;;5030157;28;20037;-82
2023/06/18 11:43:21;;;;;;;2.35;0.73;;;27.20;92.60;;;;;;5031913;28;20038;-81
2023/06/18 11:45:47;;;;;;;2.15;0.93;;;27.40;94.30;;;;;;4988790;28;20152;-82
2023/06/18 11:48:13;;;;;;;1.95;0.70;;;27.40;95.20;;;;;;5000506;28;20453;-82
2023/06/18 11:50:39;;;;;;;2.22;0.80;;;27.40;94.00;;;;;;5002136;28;20090;-81
2023/06/18 11:53:05;;;;;;;2.67;1.00;;;27.10;94.20;;;;;;4983357;28;20364;-82
2023/06/18 11:55:33;;;;;;;3.53;1.00;;;27.10;94.40;;;;;;4983426;28;20118;-82
2023/06/18 11:58:01;;;;;;;2.63;0.85;;;27.10;93.70;;;;;;5032283;28;20028;-81
2023/06/18 12:00:26;;;;;;;2.17;0.88;;;27.10;94.50;;;;;;4997400;28;20538;-82
2023/06/18 12:02:52;;;;;;;4.82;1.13;;;27.10;94.80;;;;;;4999625;28;20137;-82
2023/06/18 12:05:18;;;;;;;1.67;1.00;;;27.00;94.90;;;;;;5021064;28;20120;-82
2023/06/18 12:07:45;;;;;;;1.80;1.10;;;27.10;95.00;;;;;;5018056;28;20030;-82
2023/06/18 12:10:12;;;;;;;1.85;0.90;;;27.10;94.20;;;;;;5002093;28;20113;-82
2023/06/18 12:12:57;;;;;;;2.78;0.88;;;27.20;94.50;;;;;;5001422;28;20034;-82
2023/06/18 12:15:36;;;;;;;1.50;0.90;;;27.50;94.80;;;;;;5019769;28;20560;-81
2023/06/18 12:18:27;;;;;;;1.17;0.60;;;27.70;92.90;;;;;;5031412;28;20026;-82
2023/06/18 12:20:53;;;;;;;1.60;0.70;;;27.80;91.70;;;;;;5002436;28;20026;-82
2023/06/18 12:23:19;;;;;;;1.92;0.90;;;28.00;92.40;;;;;;4999896;28;20057;-81
2023/06/18 12:25:45;;;;;;;2.25;0.75;;;28.00;93.80;;;;;;5000709;28;20039;-83
2023/06/18 12:28:11;;;;;;;1.85;0.90;;;28.10;92.20;;;;;;5015378;28;20030;-83
2023/06/18 12:30:39;;;;;;;2.95;1.25;;;28.10;92.40;;;;;;5000474;28;20077;-82
2023/06/18 12:33:06;;;;;;;1.60;0.95;;;28.00;92.30;;;;;;5013880;28;20375;-83
2023/06/18 12:35:34;;;;;;;2.67;0.80;;;27.80;93.70;;;;;;5004448;28;20070;-82
2023/06/18 12:38:04;;;;;;;2.72;1.10;;;27.60;92.70;;;;;;5015745;28;20502;-83
2023/06/18 12:40:31;;;;;;;1.67;0.90;;;27.40;93.10;;;;;;5000965;28;20649;-83
2023/06/18 12:42:58;;;;;;;2.90;0.98;;;27.20;93.80;;;;;;5005223;28;20423;-83
2023/06/18 12:45:29;;;;;;;1.83;0.90;;;27.40;91.90;;;;;;5015273;28;20038;-85
2023/06/18 12:47:55;;;;;;;2.95;1.23;;;27.50;92.30;;;;;;5000595;28;20041;-85
2023/06/18 12:50:27;;;;;;;1.80;0.80;;;27.30;93.80;;;;;;4981046;28;20042;-84
2023/06/18 12:52:52;;;;;;;1.67;1.05;;;27.40;93.80;;;;;;5000107;28;20132;-83